createdAt,value
2022-09-13T00:00:34.561Z,76.83
2022-09-13T00:07:30.112Z,77.08
2022-09-13T00:14:25.744Z,77.41
2022-09-13T00:21:26.090Z,77.51
2022-09-13T00:28:29.176Z,77.38
2022-09-13T00:35:24.707Z,77.03
2022-09-13T00:42:06.895Z,77.06
2022-09-13T00:48:57.898Z,76.99
2022-09-13T00:55:53.661Z,76.88
2022-09-13T01:02:33.886Z,76.70
2022-09-13T01:09:19.901Z,76.70
2022-09-13T01:16:08.400Z,77.11
2022-09-13T01:23:10.817Z,77.06
2022-09-13T01:30:18.110Z,77.10
2022-09-13T01:37:20.898Z,77.40
2022-09-13T01:44:44.431Z,76.88
2022-09-13T01:51:45.737Z,76.71
2022-09-13T01:59:09.438Z,77.38
2022-09-13T02:06:16.471Z,76.90
2022-09-13T02:13:08.516Z,76.44
2022-09-13T02:20:12.842Z,76.21
2022-09-13T02:26:59.667Z,76.32
2022-09-13T02:33:37.008Z,76.86
2022-09-13T02:40:40.244Z,76.64
2022-09-13T02:47:52.039Z,75.79
2022-09-13T02:54:57.813Z,75.47
2022-09-13T03:01:52.788Z,75.61
2022-09-13T03:08:48.330Z,75.70
2022-09-13T03:16:13.853Z,75.63
2022-09-13T03:23:17.260Z,75.47
2022-09-13T03:30:47.081Z,75.58
2022-09-13T03:38:05.143Z,75.64
2022-09-13T03:45:08.010Z,75.86
2022-09-13T03:51:45.325Z,76.15
2022-09-13T03:58:00.920Z,77.08
2022-09-13T04:04:26.751Z,76.58
2022-09-13T04:10:34.923Z,76.66
2022-09-13T04:17:23.598Z,76.67
2022-09-13T04:23:54.593Z,76.32
2022-09-13T04:29:42.706Z,76.44
2022-09-13T04:36:18.403Z,76.42
2022-09-13T04:43:13.955Z,77.06
2022-09-13T04:50:16.941Z,77.09
2022-09-13T04:57:22.639Z,76.83
2022-09-13T05:04:15.462Z,77.00
2022-09-13T05:11:16.478Z,76.97
2022-09-13T05:17:46.413Z,77.21
2022-09-13T05:23:46.030Z,77.79
2022-09-13T05:30:31.861Z,77.60
2022-09-13T05:37:34.743Z,76.79
2022-09-13T05:44:27.853Z,76.76
2022-09-13T05:51:31.073Z,76.95
2022-09-13T05:58:33.660Z,77.79
2022-09-13T06:05:36.320Z,78.49
2022-09-13T06:12:17.333Z,78.89
2022-09-13T06:19:19.120Z,79.04
2022-09-13T06:26:22.260Z,78.83
2022-09-13T06:32:53.033Z,78.82
2022-09-13T06:39:56.070Z,78.46
2022-09-13T06:47:01.743Z,78.23
2022-09-13T06:54:04.473Z,78.02
2022-09-13T07:00:55.438Z,77.68
2022-09-13T07:08:01.912Z,77.26
2022-09-13T07:15:05.277Z,76.96
2022-09-13T07:21:53.256Z,76.50
2022-09-13T07:28:22.633Z,76.33
2022-09-13T07:35:25.974Z,76.32
2022-09-13T07:42:19.359Z,75.88
2022-09-13T07:49:21.108Z,75.52
2022-09-13T07:55:14.174Z,75.14
2022-09-13T08:02:04.869Z,74.88
2022-09-13T08:08:48.647Z,73.90
2022-09-13T08:14:24.345Z,73.29
2022-09-13T08:20:33.865Z,72.39
2022-09-13T08:27:28.708Z,71.45
2022-09-13T08:34:25.704Z,70.68
2022-09-13T08:40:32.722Z,70.05
2022-09-13T08:47:14.866Z,69.75
2022-09-13T08:54:18.404Z,68.76
2022-09-13T09:01:20.859Z,68.15
2022-09-13T09:08:29.748Z,67.85
2022-09-13T09:15:38.439Z,66.39
2022-09-13T09:22:22.804Z,65.50
2022-09-13T09:29:15.309Z,64.98
2022-09-13T09:36:13.778Z,64.42
2022-09-13T09:42:59.336Z,63.96
2022-09-13T09:50:29.645Z,63.57
2022-09-13T09:57:23.425Z,62.42
2022-09-13T10:04:35.465Z,62.28
2022-09-13T10:11:43.826Z,62.04
2022-09-13T10:18:44.568Z,61.33
2022-09-13T10:26:03.452Z,60.84
2022-09-13T10:33:00.225Z,60.49
2022-09-13T10:39:38.113Z,59.87
2022-09-13T10:46:31.983Z,59.11
2022-09-13T10:53:45.488Z,58.23
2022-09-13T11:00:35.242Z,56.85
2022-09-13T11:07:46.320Z,54.87
2022-09-13T11:14:35.075Z,54.22
2022-09-13T11:21:22.324Z,53.13
2022-09-13T11:28:26.756Z,51.58
2022-09-13T11:36:02.594Z,52.02
2022-09-13T11:43:28.095Z,51.56
2022-09-13T11:50:57.609Z,52.51
2022-09-13T11:58:06.438Z,53.18
2022-09-13T12:05:33.257Z,53.92
2022-09-13T12:12:44.892Z,54.33
2022-09-13T12:19:47.629Z,54.35
2022-09-13T12:27:01.191Z,54.96
2022-09-13T12:33:57.004Z,56.42
2022-09-13T12:40:52.701Z,56.19
2022-09-13T12:47:59.805Z,57.01
2022-09-13T12:55:42.373Z,58.33
2022-09-13T13:02:40.761Z,58.15
2022-09-13T13:09:43.144Z,57.72
2022-09-13T13:16:46.057Z,57.83
2022-09-13T13:24:04.114Z,58.10
2022-09-13T13:31:20.943Z,58.56
2022-09-13T13:38:26.475Z,59.02
2022-09-13T13:44:57.990Z,59.34
2022-09-13T13:51:52.986Z,59.08
2022-09-13T13:59:12.676Z,58.85
2022-09-13T14:06:21.562Z,58.06
2022-09-13T14:13:06.463Z,58.19
2022-09-13T14:20:24.418Z,58.17
2022-09-13T14:27:16.327Z,57.59
2022-09-13T14:34:10.081Z,57.69
2022-09-13T14:41:18.840Z,57.46
2022-09-13T14:48:30.253Z,57.77
2022-09-13T14:55:31.963Z,57.69
2022-09-13T15:02:34.832Z,57.87
2022-09-13T15:09:51.363Z,58.03
2022-09-13T15:16:57.055Z,58.24
2022-09-13T15:22:54.194Z,58.51
2022-09-13T15:29:39.258Z,58.88
2022-09-13T15:36:29.310Z,58.97
2022-09-13T15:43:11.643Z,59.38
2022-09-13T15:50:15.509Z,59.30
2022-09-13T15:56:43.434Z,59.53
2022-09-13T16:03:46.211Z,59.74
2022-09-13T16:10:50.541Z,60.13
2022-09-13T16:17:40.295Z,60.29
2022-09-13T16:24:42.057Z,60.67
2022-09-13T16:31:45.164Z,61.12
2022-09-13T16:38:48.158Z,60.97
2022-09-13T16:45:51.379Z,61.51
2022-09-13T16:52:54.239Z,62.22
2022-09-13T16:59:54.334Z,63.05
2022-09-13T17:06:43.284Z,63.52
2022-09-13T17:13:47.165Z,63.86
2022-09-13T17:20:43.675Z,64.09
2022-09-13T17:27:47.061Z,64.37
2022-09-13T17:34:53.582Z,64.69
2022-09-13T17:41:58.777Z,64.89
2022-09-13T17:49:01.970Z,65.11
2022-09-13T17:56:04.818Z,65.22
2022-09-13T18:03:07.422Z,65.26
2022-09-13T18:10:04.069Z,65.46
2022-09-13T18:17:03.751Z,65.41
2022-09-13T18:24:00.353Z,65.34
2022-09-13T18:31:03.075Z,65.25
2022-09-13T18:37:58.452Z,65.21
2022-09-13T18:44:54.091Z,65.33
2022-09-13T18:51:56.383Z,65.47
2022-09-13T18:59:00.658Z,65.93
2022-09-13T19:05:58.429Z,66.50
2022-09-13T19:12:53.428Z,67.36
2022-09-13T19:19:39.939Z,67.53
2022-09-13T19:26:49.499Z,67.54
2022-09-13T19:33:55.297Z,67.51
2022-09-13T19:40:53.595Z,67.58
2022-09-13T19:54:54.829Z,67.92
2022-09-13T20:02:03.129Z,68.12
2022-09-13T20:08:57.465Z,68.26
2022-09-13T20:16:01.668Z,68.31
2022-09-13T20:23:08.599Z,68.32
2022-09-13T20:29:47.148Z,68.35
2022-09-13T20:36:43.754Z,68.38
2022-09-13T20:43:48.577Z,68.42
2022-09-13T20:50:45.287Z,68.47
2022-09-13T20:57:41.286Z,68.45
2022-09-13T21:04:44.356Z,68.51
2022-09-13T21:11:46.038Z,68.62
2022-09-13T21:18:48.443Z,68.64
2022-09-13T21:25:41.040Z,68.72
2022-09-13T21:32:43.239Z,68.79
2022-09-13T21:39:39.009Z,69.07
2022-09-13T21:46:41.682Z,69.14
2022-09-13T21:53:21.909Z,69.42
2022-09-13T22:00:09.509Z,69.63
2022-09-13T22:06:53.535Z,70.05
2022-09-13T22:13:49.084Z,70.06
2022-09-13T22:20:50.465Z,70.09
2022-09-13T22:27:53.644Z,70.03
2022-09-13T22:34:59.684Z,69.97
2022-09-13T22:42:02.636Z,70.00
2022-09-13T22:48:25.698Z,69.98
2022-09-13T22:55:28.627Z,69.89
2022-09-13T23:02:35.853Z,69.93
2022-09-13T23:09:31.485Z,70.19
2022-09-13T23:16:33.214Z,70.30
2022-09-13T23:23:36.140Z,70.36
2022-09-13T23:30:39.012Z,70.36
2022-09-13T23:37:41.823Z,70.15
2022-09-13T23:44:44.775Z,70.06
2022-09-13T23:51:47.852Z,69.80
2022-09-13T23:58:43.404Z,69.75
